Time;durP1;ratioP1;P1;durP2;ratioP2;P2;SDS_P1;SDS_P2;PMS_P1;PMS_P2;Temp;Humidity;BMP_temperature;BMP_pressure;BME280_temperature;BME280_humidity;BME280_pressure;Samples;Min_cycle;Max_cycle;Signal;HPM_P1;HPM_P2
2023/12/07 00:00:14;;;;;;;;;;;;;;;4.66;65.94;99675.56;4400195;32;31559;-86
2023/12/07 00:02:42;;;;;;;;;;;;;;;4.67;65.91;99675.53;4393981;32;32449;-86
2023/12/07 00:05:09;;;;;;;;;;;;;;;4.55;66.96;99681.00;4412886;32;33616;-86
2023/12/07 00:07:36;;;;;;;;;;;;;;;4.76;65.86;99677.94;4394198;32;33130;-83
2023/12/07 00:10:05;;;;;;;;;;;;;;;4.75;66.08;99683.22;4399499;32;33404;-83
2023/12/07 00:12:32;;;;;;;;;;;;;;;4.77;65.55;99684.03;4389700;32;31389;-82
2023/12/07 00:14:59;;;;;;;;;;;;;;;4.74;65.84;99681.47;4415819;32;33470;-83
2023/12/07 00:17:27;;;;;;;;;;;;;;;4.75;65.64;99680.63;4411453;32;33767;-83
2023/12/07 00:19:55;;;;;;;;;;;;;;;4.63;66.12;99679.09;4397997;32;33382;-83
2023/12/07 00:22:24;;;;;;;;;;;;;;;4.71;66.17;99682.44;4397633;32;34635;-82
2023/12/07 00:24:52;;;;;;;;;;;;;;;4.65;66.27;99681.69;4399323;32;33955;-82
2023/12/07 00:27:19;;;;;;;;;;;;;;;4.93;64.95;99679.31;4397635;32;33876;-82
2023/12/07 00:29:47;;;;;;;;;;;;;;;4.55;66.99;99691.47;4413047;32;33174;-82
2023/12/07 00:32:14;;;;;;;;;;;;;;;4.94;65.02;99683.66;4411775;32;33812;-81
2023/12/07 00:34:42;;;;;;;;;;;;;;;4.73;65.67;99683.22;4397525;32;33594;-81
2023/12/07 00:37:09;;;;;;;;;;;;;;;4.77;65.41;99684.91;4411743;32;32325;-81
2023/12/07 00:39:37;;;;;;;;;;;;;;;4.90;64.28;99687.25;4411645;32;33443;-82
2023/12/07 00:42:04;;;;;;;;;;;;;;;4.73;65.27;99685.84;4400547;32;33209;-81
2023/12/07 00:44:32;;;;;;;;;;;;;;;4.50;66.91;99686.34;4417381;32;33859;-81
2023/12/07 00:47:00;;;;;;;;;;;;;;;4.55;66.51;99687.09;4403883;32;33210;-81
2023/12/07 00:49:27;;;;;;;;;;;;;;;4.72;65.18;99680.66;4404922;32;32694;-81
2023/12/07 00:51:54;;;;;;;;;;;;;;;4.55;66.53;99687.09;4417350;32;33728;-81
2023/12/07 00:54:22;;;;;;;;;;;;;;;4.73;65.77;99685.84;4417438;32;34238;-81
2023/12/07 00:56:49;;;;;;;;;;;;;;;4.90;64.53;99684.62;4416811;32;33525;-82
2023/12/07 00:59:17;;;;;;;;;;;;;;;4.44;66.54;99689.09;4404885;32;30647;-82
2023/12/07 01:01:44;;;;;;;;;;;;;;;4.44;66.49;99680.37;4403868;32;34157;-82
2023/12/07 01:04:11;;;;;;;;;;;;;;;4.37;67.11;99690.97;4391499;32;33827;-81
2023/12/07 01:06:39;;;;;;;;;;;;;;;4.66;65.92;99684.28;4404190;32;34260;-81
2023/12/07 01:09:08;;;;;;;;;;;;;;;4.55;66.32;99686.25;4405261;32;32040;-82
2023/12/07 01:11:35;;;;;;;;;;;;;;;4.62;66.46;99682.63;4396231;32;32942;-82
2023/12/07 01:14:02;;;;;;;;;;;;;;;4.53;66.18;99683.66;4416796;32;33968;-83
2023/12/07 01:16:30;;;;;;;;;;;;;;;4.37;67.53;99680.53;4396648;32;33114;-83
2023/12/07 01:18:57;;;;;;;;;;;;;;;4.39;66.57;99669.16;4418091;32;33401;-82
2023/12/07 01:21:25;;;;;;;;;;;;;;;4.32;67.50;99674.53;4398277;32;33505;-81
2023/12/07 01:23:52;;;;;;;;;;;;;;;4.08;68.64;99670.66;4407090;32;34087;-81
2023/12/07 01:26:32;;;;;;;;;;;;;;;4.35;67.04;99661.38;4403647;32;32823;-81
2023/12/07 01:29:00;;;;;;;;;;;;;;;4.29;66.77;99669.34;4403239;32;34155;-81
2023/12/07 01:31:27;;;;;;;;;;;;;;;4.43;66.64;99668.22;4404610;32;32962;-81
2023/12/07 01:33:55;;;;;;;;;;;;;;;4.44;66.53;99668.19;4405452;32;34475;-81
2023/12/07 01:36:22;;;;;;;;;;;;;;;4.50;66.65;99667.19;4415650;32;34589;-81
2023/12/07 01:38:50;;;;;;;;;;;;;;;4.15;68.11;99671.38;4403641;32;31871;-83
2023/12/07 01:41:18;;;;;;;;;;;;;;;4.42;66.42;99662.12;4405930;32;33168;-81
2023/12/07 01:43:46;;;;;;;;;;;;;;;4.42;66.95;99669.97;4418334;32;34275;-81
2023/12/07 01:46:14;;;;;;;;;;;;;;;4.50;66.63;99665.41;4405539;32;34320;-81
2023/12/07 01:48:41;;;;;;;;;;;;;;;4.54;65.92;99667.09;4405518;32;32924;-81
2023/12/07 01:51:09;;;;;;;;;;;;;;;4.55;66.91;99660.09;4401332;32;34040;-80
2023/12/07 01:53:38;;;;;;;;;;;;;;;4.62;66.34;99659.94;4418442;32;35002;-81
2023/12/07 01:56:06;;;;;;;;;;;;;;;4.77;65.56;99663.13;4417180;32;33975;-81
2023/12/07 01:58:34;;;;;;;;;;;;;;;4.76;65.54;99659.63;4414190;32;32545;-80
2023/12/07 02:01:02;;;;;;;;;;;;;;;4.39;66.66;99663.94;4406631;32;33306;-81
2023/12/07 02:03:30;;;;;;;;;;;;;;;4.62;65.11;99662.56;4418983;32;33909;-81
2023/12/07 02:05:58;;;;;;;;;;;;;;;4.30;67.08;99663.22;4406507;32;33154;-80
2023/12/07 02:08:25;;;;;;;;;;;;;;;4.29;67.31;99669.34;4405457;32;32449;-80
2023/12/07 02:10:52;;;;;;;;;;;;;;;4.36;67.10;99670.94;4406608;32;32964;-80
2023/12/07 02:13:20;;;;;;;;;;;;;;;4.41;66.73;99664.75;4406326;32;33555;-81
2023/12/07 02:15:48;;;;;;;;;;;;;;;4.42;67.02;99663.88;4391532;32;33474;-81
2023/12/07 02:18:21;;;;;;;;;;;;;;;4.19;68.28;99666.97;4405178;32;33418;-80
2023/12/07 02:21:00;;;;;;;;;;;;;;;4.29;67.15;99658.91;4421129;32;33807;-80
2023/12/07 02:23:28;;;;;;;;;;;;;;;4.35;67.28;99663.13;4403086;32;31203;-80
2023/12/07 02:29:18;;;;;;;;;;;;;;;4.58;66.65;99654.81;4419181;32;34203;-79
2023/12/07 02:31:46;;;;;;;;;;;;;;;4.60;66.02;99653.00;4407759;32;33212;-79
2023/12/07 02:34:13;;;;;;;;;;;;;;;4.17;68.28;99663.50;4419599;32;33819;-79
2023/12/07 02:36:41;;;;;;;;;;;;;;;4.30;67.36;99658.00;4420296;32;34398;-79
2023/12/07 02:39:09;;;;;;;;;;;;;;;4.40;67.36;99663.03;4406187;32;33554;-79
2023/12/07 02:41:36;;;;;;;;;;;;;;;4.14;67.93;99661.81;4407870;32;33525;-80
2023/12/07 02:44:03;;;;;;;;;;;;;;;4.43;67.21;99662.97;4421061;32;35014;-81
2023/12/07 02:46:31;;;;;;;;;;;;;;;4.11;67.68;99667.97;4407618;32;33494;-80
2023/12/07 02:48:59;;;;;;;;;;;;;;;3.93;69.03;99665.69;4392796;32;32422;-80
2023/12/07 02:51:26;;;;;;;;;;;;;;;4.15;67.57;99663.53;4420579;32;34121;-81
2023/12/07 02:53:54;;;;;;;;;;;;;;;3.67;69.54;99663.56;4420216;32;34153;-81
2023/12/07 02:56:21;;;;;;;;;;;;;;;4.16;67.98;99662.66;4401882;32;33747;-81
2023/12/07 02:58:49;;;;;;;;;;;;;;;4.21;67.99;99660.78;4407620;32;33031;-82
2023/12/07 03:01:16;;;;;;;;;;;;;;;4.27;67.58;99665.03;4407651;32;34860;-82
2023/12/07 03:03:44;;;;;;;;;;;;;;;4.14;68.40;99664.44;4420248;32;34674;-81
2023/12/07 03:06:11;;;;;;;;;;;;;;;4.07;68.83;99673.28;4419936;32;34671;-81
2023/12/07 03:08:39;;;;;;;;;;;;;;;4.15;67.37;99667.91;4407818;32;32925;-81
2023/12/07 03:11:06;;;;;;;;;;;;;;;4.24;67.89;99673.81;4420601;32;33709;-81
2023/12/07 03:13:34;;;;;;;;;;;;;;;4.19;68.30;99675.66;4408122;32;33984;-81
2023/12/07 03:16:01;;;;;;;;;;;;;;;4.26;67.70;99679.00;4397096;32;34902;-83
2023/12/07 03:18:29;;;;;;;;;;;;;;;4.14;68.21;99689.72;4407453;32;33651;-83
2023/12/07 03:20:56;;;;;;;;;;;;;;;4.20;67.82;99685.22;4407823;32;34214;-83
2023/12/07 03:23:24;;;;;;;;;;;;;;;4.10;68.63;99684.53;4415559;32;33075;-83
2023/12/07 03:25:51;;;;;;;;;;;;;;;4.04;68.64;99678.56;4420795;32;34519;-83
2023/12/07 03:28:18;;;;;;;;;;;;;;;4.29;67.42;99678.94;4419675;32;33422;-84
2023/12/07 03:30:46;;;;;;;;;;;;;;;4.12;67.88;99681.87;4419909;32;33661;-83
2023/12/07 03:33:13;;;;;;;;;;;;;;;4.23;68.13;99690.38;4407407;32;33948;-83
2023/12/07 03:35:40;;;;;;;;;;;;;;;4.16;68.54;99687.91;4394815;32;33175;-84
2023/12/07 03:38:08;;;;;;;;;;;;;;;3.91;69.02;99687.53;4406241;32;32188;-81
2023/12/07 03:40:35;;;;;;;;;;;;;;;3.97;69.02;99698.72;4421015;32;33643;-81
2023/12/07 03:43:04;;;;;;;;;;;;;;;4.14;68.19;99694.94;4405378;32;33641;-81
2023/12/07 03:45:32;;;;;;;;;;;;;;;4.29;67.89;99690.25;4421108;32;34890;-81
2023/12/07 03:48:00;;;;;;;;;;;;;;;4.11;68.15;99696.69;4420349;32;33324;-81
2023/12/07 03:50:27;;;;;;;;;;;;;;;4.25;67.86;99698.19;4395964;32;33145;-81
2023/12/07 03:52:55;;;;;;;;;;;;;;;4.33;67.71;99698.91;4420440;32;33740;-81
2023/12/07 03:55:22;;;;;;;;;;;;;;;4.33;67.33;99691.94;4419667;32;33795;-81
2023/12/07 03:57:50;;;;;;;;;;;;;;;4.33;67.35;99697.16;4388320;32;33633;-81
2023/12/07 04:00:18;;;;;;;;;;;;;;;4.46;66.81;99699.50;4417560;32;34271;-81
2023/12/07 04:02:45;;;;;;;;;;;;;;;4.44;67.38;99704.78;4406878;32;34377;-80
2023/12/07 04:05:13;;;;;;;;;;;;;;;4.49;66.89;99699.44;4406279;32;32919;-80
2023/12/07 04:07:41;;;;;;;;;;;;;;;4.49;66.54;99699.44;4405213;32;32510;-82
2023/12/07 04:10:09;;;;;;;;;;;;;;;4.56;67.11;99703.69;4406005;32;33952;-81
2023/12/07 04:12:37;;;;;;;;;;;;;;;4.43;66.40;99707.44;4399785;32;33143;-81
2023/12/07 04:15:04;;;;;;;;;;;;;;;4.37;67.15;99709.28;4419924;32;34351;-82
2023/12/07 04:17:32;;;;;;;;;;;;;;;4.28;67.45;99717.28;4406125;32;32413;-81
2023/12/07 04:19:59;;;;;;;;;;;;;;;4.41;67.27;99723.12;4407849;32;33440;-81
2023/12/07 04:22:26;;;;;;;;;;;;;;;4.50;66.68;99714.25;4407515;32;34319;-81
2023/12/07 04:24:54;;;;;;;;;;;;;;;4.55;66.78;99710.63;4407114;32;33171;-83
2023/12/07 04:27:22;;;;;;;;;;;;;;;4.54;67.05;99721.13;4407604;32;32817;-82
2023/12/07 04:29:49;;;;;;;;;;;;;;;4.62;66.73;99714.84;4407500;32;32930;-82
2023/12/07 04:32:16;;;;;;;;;;;;;;;4.55;66.72;99717.63;4419388;32;33951;-81
2023/12/07 04:34:44;;;;;;;;;;;;;;;4.63;66.79;99720.94;4419207;32;33537;-82
2023/12/07 04:37:11;;;;;;;;;;;;;;;4.76;65.98;99714.56;4406924;32;32100;-82
2023/12/07 04:39:39;;;;;;;;;;;;;;;4.83;65.63;99721.38;4420194;32;34599;-82
2023/12/07 04:42:06;;;;;;;;;;;;;;;4.83;65.50;99724.00;4404711;32;34224;-84
2023/12/07 04:44:34;;;;;;;;;;;;;;;5.02;65.03;99727.06;4418973;32;33958;-83
2023/12/07 04:47:01;;;;;;;;;;;;;;;4.97;64.74;99725.44;4405332;32;32473;-83
2023/12/07 04:49:28;;;;;;;;;;;;;;;5.14;64.47;99731.19;4419038;32;34178;-83
2023/12/07 04:51:56;;;;;;;;;;;;;;;5.08;64.55;99728.69;4407502;32;33297;-83
2023/12/07 04:54:24;;;;;;;;;;;;;;;4.90;65.02;99736.97;4419941;32;33995;-83
2023/12/07 04:56:51;;;;;;;;;;;;;;;4.92;64.90;99729.94;4418088;32;32847;-81
2023/12/07 04:59:18;;;;;;;;;;;;;;;4.82;65.30;99753.66;4420122;32;33849;-82
2023/12/07 05:01:47;;;;;;;;;;;;;;;4.80;65.61;99745.00;4405284;32;34154;-83
2023/12/07 05:04:14;;;;;;;;;;;;;;;4.59;66.38;99750.66;4420165;32;34846;-84
2023/12/07 05:06:41;;;;;;;;;;;;;;;4.75;65.96;99746.88;4419794;32;32691;-83
2023/12/07 05:09:09;;;;;;;;;;;;;;;5.02;65.12;99748.00;4420697;32;34736;-82
2023/12/07 05:11:42;;;;;;;;;;;;;;;4.85;65.35;99756.22;4406802;32;33135;-82
2023/12/07 05:14:09;;;;;;;;;;;;;;;4.86;64.84;99754.47;4405593;32;33139;-82
2023/12/07 05:16:36;;;;;;;;;;;;;;;4.94;65.31;99754.28;4406578;32;32410;-82
2023/12/07 05:19:04;;;;;;;;;;;;;;;4.71;65.64;99760.88;4405769;32;32841;-82
2023/12/07 05:21:32;;;;;;;;;;;;;;;4.77;65.41;99760.75;4407434;32;32619;-83
2023/12/07 05:23:59;;;;;;;;;;;;;;;4.90;65.61;99757.91;4387849;32;32564;-84
2023/12/07 05:26:26;;;;;;;;;;;;;;;4.79;65.78;99769.41;4417469;32;33485;-82
2023/12/07 05:28:54;;;;;;;;;;;;;;;4.80;65.99;99770.31;4402359;32;32703;-82
2023/12/07 05:31:21;;;;;;;;;;;;;;;4.74;66.10;99776.50;4407720;32;33723;-82
2023/12/07 05:33:48;;;;;;;;;;;;;;;4.65;65.75;99776.69;4405340;32;33168;-82
2023/12/07 05:36:18;;;;;;;;;;;;;;;4.78;65.70;99772.94;4405863;32;33530;-83
2023/12/07 05:38:45;;;;;;;;;;;;;;;4.50;66.71;99783.09;4413300;32;33040;-82
2023/12/07 05:41:12;;;;;;;;;;;;;;;4.62;66.64;99779.37;4406920;32;33154;-82
2023/12/07 05:43:43;;;;;;;;;;;;;;;4.73;66.69;99782.63;4414943;32;33144;-82
2023/12/07 05:46:10;;;;;;;;;;;;;;;4.86;65.75;99778.88;4405072;32;33266;-84
2023/12/07 05:48:38;;;;;;;;;;;;;;;4.79;65.38;99785.13;4418835;32;33731;-84
2023/12/07 05:51:11;;;;;;;;;;;;;;;4.80;66.06;99786.00;4418410;32;33832;-84
2023/12/07 05:53:38;;;;;;;;;;;;;;;4.87;65.47;99798.91;4415727;32;32383;-84
2023/12/07 05:56:05;;;;;;;;;;;;;;;4.98;64.25;99792.59;4417022;32;32535;-81
2023/12/07 05:58:33;;;;;;;;;;;;;;;4.81;65.79;99799.03;4404915;32;33214;-82
2023/12/07 06:01:01;;;;;;;;;;;;;;;5.05;64.60;99794.19;4408355;32;33077;-83
2023/12/07 06:03:29;;;;;;;;;;;;;;;4.77;65.85;99806.97;4422242;32;34170;-80
2023/12/07 06:05:57;;;;;;;;;;;;;;;4.76;65.34;99803.50;4421094;32;33747;-80
2023/12/07 06:08:24;;;;;;;;;;;;;;;4.96;64.53;99804.84;4421477;32;33361;-80
2023/12/07 06:10:51;;;;;;;;;;;;;;;5.07;64.34;99805.47;4421375;32;34392;-81
2023/12/07 06:13:19;;;;;;;;;;;;;;;5.02;64.77;99799.47;4408924;32;34368;-80
2023/12/07 06:15:46;;;;;;;;;;;;;;;4.97;64.90;99810.03;4419838;32;33443;-80
2023/12/07 06:18:14;;;;;;;;;;;;;;;5.13;64.47;99811.47;4406771;32;34034;-81
2023/12/07 06:20:43;;;;;;;;;;;;;;;5.14;64.29;99813.19;4421481;32;33987;-80
2023/12/07 06:23:12;;;;;;;;;;;;;;;4.58;65.64;99814.31;4408691;32;34526;-80
2023/12/07 06:25:40;;;;;;;;;;;;;;;4.77;65.77;99818.31;4409527;32;33530;-80
2023/12/07 06:28:08;;;;;;;;;;;;;;;4.45;66.32;99826.75;4408464;32;32953;-81
2023/12/07 06:30:35;;;;;;;;;;;;;;;4.41;66.78;99825.09;4398207;32;33486;-81
2023/12/07 06:33:03;;;;;;;;;;;;;;;4.55;67.05;99827.44;4420003;32;33997;-80
2023/12/07 06:35:30;;;;;;;;;;;;;;;4.51;66.50;99831.00;4409207;32;33925;-80
2023/12/07 06:37:58;;;;;;;;;;;;;;;4.22;67.26;99840.22;4394630;32;33253;-80
2023/12/07 06:40:26;;;;;;;;;;;;;;;4.55;65.92;99844.00;4407022;32;32579;-83
2023/12/07 06:42:53;;;;;;;;;;;;;;;4.21;67.91;99845.50;4420347;32;32004;-84
2023/12/07 06:45:21;;;;;;;;;;;;;;;4.39;67.38;99852.16;4418449;32;33243;-83
2023/12/07 06:47:48;;;;;;;;;;;;;;;4.55;66.94;99864.06;4422097;32;34840;-83
2023/12/07 06:50:16;;;;;;;;;;;;;;;4.45;67.26;99857.28;4394115;32;33839;-84
2023/12/07 06:52:44;;;;;;;;;;;;;;;4.51;66.46;99860.66;4396568;32;33344;-83
2023/12/07 06:55:14;;;;;;;;;;;;;;;4.20;67.45;99856.84;4396876;32;30318;-84
2023/12/07 06:57:42;;;;;;;;;;;;;;;4.54;67.03;99857.09;4386995;32;32858;-84
2023/12/07 07:00:10;;;;;;;;;;;;;;;4.36;67.82;99866.13;4419260;32;33778;-84
2023/12/07 07:02:39;;;;;;;;;;;;;;;4.73;66.34;99857.63;4419966;32;33458;-84
2023/12/07 07:05:07;;;;;;;;;;;;;;;4.89;65.62;99866.94;4421712;32;33045;-84
2023/12/07 07:07:34;;;;;;;;;;;;;;;4.39;66.53;99858.25;4420742;32;33264;-84
2023/12/07 07:10:02;;;;;;;;;;;;;;;4.38;66.63;99864.37;4407158;32;34339;-84
2023/12/07 07:12:30;;;;;;;;;;;;;;;4.16;68.40;99863.87;4418900;32;34570;-83
2023/12/07 07:14:57;;;;;;;;;;;;;;;4.08;68.96;99868.34;4418535;32;33921;-84
2023/12/07 07:17:25;;;;;;;;;;;;;;;4.32;68.02;99873.19;4405479;32;34433;-84
2023/12/07 07:19:54;;;;;;;;;;;;;;;4.37;67.17;99875.72;4419647;32;33431;-83
2023/12/07 07:22:21;;;;;;;;;;;;;;;4.08;67.98;99876.19;4418194;32;31785;-84
2023/12/07 07:24:52;;;;;;;;;;;;;;;3.75;69.75;99877.56;4397237;32;33322;-84
2023/12/07 07:27:19;;;;;;;;;;;;;;;4.19;68.48;99882.13;4380328;32;33909;-84
2023/12/07 07:29:47;;;;;;;;;;;;;;;4.23;68.40;99881.19;4395872;32;33476;-84
2023/12/07 07:32:16;;;;;;;;;;;;;;;4.33;67.95;99885.38;4408472;32;33975;-84
2023/12/07 07:34:43;;;;;;;;;;;;;;;4.31;68.53;99887.13;4403672;32;33946;-85
2023/12/07 07:37:10;;;;;;;;;;;;;;;4.91;65.73;99877.34;4421139;32;34013;-84
2023/12/07 07:39:39;;;;;;;;;;;;;;;4.53;66.88;99882.41;4408148;32;34894;-85
2023/12/07 07:42:06;;;;;;;;;;;;;;;4.43;67.41;99887.81;4409190;32;33314;-84
2023/12/07 07:44:33;;;;;;;;;;;;;;;4.25;67.88;99897.69;4419466;32;34851;-84
2023/12/07 07:47:01;;;;;;;;;;;;;;;4.11;67.99;99895.28;4418950;32;34982;-84
2023/12/07 07:49:28;;;;;;;;;;;;;;;4.30;68.17;99890.62;4422850;32;33946;-84
2023/12/07 07:51:56;;;;;;;;;;;;;;;4.54;67.07;99893.72;4408977;32;33857;-84
2023/12/07 07:54:24;;;;;;;;;;;;;;;4.27;68.07;99895.94;4407512;32;32113;-84
2023/12/07 07:56:51;;;;;;;;;;;;;;;4.54;66.87;99898.94;4420533;32;34078;-84
2023/12/07 07:59:18;;;;;;;;;;;;;;;4.20;67.82;99907.34;4420007;32;34637;-84
2023/12/07 08:01:47;;;;;;;;;;;;;;;4.57;67.23;99906.75;4421691;32;34011;-84
2023/12/07 08:04:15;;;;;;;;;;;;;;;4.65;66.32;99899.59;4404678;32;32303;-84
2023/12/07 08:06:42;;;;;;;;;;;;;;;4.45;67.40;99904.34;4406955;32;33728;-85
2023/12/07 08:09:10;;;;;;;;;;;;;;;4.30;67.41;99906.31;4421058;32;34545;-84
2023/12/07 08:11:38;;;;;;;;;;;;;;;4.21;68.55;99913.44;4422498;32;34695;-85
2023/12/07 08:14:05;;;;;;;;;;;;;;;4.25;68.14;99912.50;4403475;32;32133;-85
2023/12/07 08:16:32;;;;;;;;;;;;;;;4.24;68.41;99910.78;4408178;32;33549;-84
2023/12/07 08:19:00;;;;;;;;;;;;;;;4.46;67.47;99911.28;4421676;32;33581;-85
2023/12/07 08:21:29;;;;;;;;;;;;;;;4.43;67.15;99911.34;4407309;32;32835;-85
2023/12/07 08:23:57;;;;;;;;;;;;;;;4.42;68.06;99907.03;4408148;32;32197;-85
2023/12/07 08:26:27;;;;;;;;;;;;;;;4.50;67.44;99902.50;4414718;32;32922;-85
2023/12/07 08:28:55;;;;;;;;;;;;;;;4.29;67.70;99908.97;4418560;32;34155;-85
2023/12/07 08:31:23;;;;;;;;;;;;;;;4.44;66.97;99910.47;4420377;32;33624;-84
2023/12/07 08:33:52;;;;;;;;;;;;;;;4.24;68.64;99916.03;4394371;32;32383;-85
2023/12/07 08:36:20;;;;;;;;;;;;;;;4.40;68.05;99911.41;4406237;32;33756;-84
2023/12/07 08:38:48;;;;;;;;;;;;;;;4.65;66.21;99917.06;4407315;32;33354;-85
2023/12/07 08:41:15;;;;;;;;;;;;;;;4.62;66.79;99920.59;4395898;32;216502;-85
2023/12/07 08:43:43;;;;;;;;;;;;;;;4.61;66.97;99916.28;4395697;32;32012;-85
2023/12/07 08:46:11;;;;;;;;;;;;;;;4.75;66.39;99911.66;4407389;32;33667;-85
2023/12/07 08:48:38;;;;;;;;;;;;;;;4.45;67.11;99914.78;4421868;32;35073;-85
2023/12/07 08:51:09;;;;;;;;;;;;;;;4.45;67.74;99915.66;4420374;32;34941;-85
2023/12/07 08:53:37;;;;;;;;;;;;;;;4.69;66.63;99914.34;4421562;32;33212;-84
2023/12/07 08:56:05;;;;;;;;;;;;;;;4.66;66.01;99913.56;4408237;32;32665;-84
2023/12/07 08:58:32;;;;;;;;;;;;;;;4.69;65.85;99916.97;4408368;32;33958;-84
2023/12/07 09:01:00;;;;;;;;;;;;;;;4.79;66.55;99915.91;4421783;32;33930;-85
2023/12/07 09:03:31;;;;;;;;;;;;;;;4.46;67.44;99921.75;4421317;32;33161;-85
2023/12/07 09:06:00;;;;;;;;;;;;;;;4.62;66.86;99908.38;4407499;32;33601;-85
2023/12/07 09:08:27;;;;;;;;;;;;;;;4.64;66.69;99913.56;4408337;32;33610;-85
2023/12/07 09:10:55;;;;;;;;;;;;;;;4.58;66.83;99916.31;4407528;32;33292;-85
2023/12/07 09:13:22;;;;;;;;;;;;;;;4.42;67.57;99920.09;4408392;32;32494;-85
2023/12/07 09:15:50;;;;;;;;;;;;;;;4.15;68.58;99922.25;4420910;32;33757;-85
2023/12/07 09:18:17;;;;;;;;;;;;;;;4.44;67.33;99927.00;4421855;32;34296;-85
2023/12/07 09:20:49;;;;;;;;;;;;;;;4.47;67.98;99915.66;4407422;32;33647;-86
2023/12/07 09:23:16;;;;;;;;;;;;;;;4.66;67.33;99924.03;4420568;32;33774;-86
2023/12/07 09:25:44;;;;;;;;;;;;;;;4.55;67.19;99916.34;4408371;32;34249;-86
2023/12/07 09:28:11;;;;;;;;;;;;;;;4.24;68.37;99916.87;4406733;32;33889;-86
2023/12/07 09:30:39;;;;;;;;;;;;;;;4.50;67.21;99913.81;4406812;32;33316;-86
2023/12/07 09:33:07;;;;;;;;;;;;;;;4.35;68.44;99924.53;4408709;32;32807;-86
2023/12/07 09:35:34;;;;;;;;;;;;;;;4.11;68.53;99916.19;4400941;32;33877;-86
2023/12/07 09:38:02;;;;;;;;;;;;;;;4.31;68.33;99928.94;4419519;32;34165;-86
2023/12/07 09:40:30;;;;;;;;;;;;;;;4.45;67.99;99912.19;4420713;32;35103;-87
2023/12/07 09:42:58;;;;;;;;;;;;;;;4.09;68.87;99914.53;4407858;32;31913;-85
2023/12/07 09:45:25;;;;;;;;;;;;;;;4.33;68.37;99913.25;4397227;32;33360;-85
2023/12/07 09:47:55;;;;;;;;;;;;;;;4.54;67.74;99915.50;4407855;32;33815;-84
2023/12/07 09:50:24;;;;;;;;;;;;;;;4.29;68.79;99915.06;4416641;32;34106;-80
2023/12/07 09:52:52;;;;;;;;;;;;;;;4.58;67.65;99905.84;4394413;32;30421;-81
2023/12/07 09:55:33;;;;;;;;;;;;;;;4.57;67.28;99904.13;4414794;32;34078;-80
2023/12/07 09:58:05;;;;;;;;;;;;;;;4.49;67.42;99913.84;4416587;32;30635;-79
2023/12/07 10:00:35;;;;;;;;;;;;;;;4.57;66.98;99914.59;4409109;32;33734;-80
2023/12/07 10:03:04;;;;;;;;;;;;;;;4.73;66.62;99907.31;4415895;32;33086;-80
2023/12/07 10:05:31;;;;;;;;;;;;;;;4.80;66.78;99914.19;4414977;32;34381;-80
2023/12/07 10:07:59;;;;;;;;;;;;;;;4.38;67.48;99911.44;4383772;32;33437;-80
2023/12/07 10:10:27;;;;;;;;;;;;;;;4.56;66.96;99913.72;4403420;32;33141;-80
2023/12/07 10:12:55;;;;;;;;;;;;;;;4.48;67.16;99915.59;4416902;32;33511;-80
2023/12/07 10:15:23;;;;;;;;;;;;;;;4.64;67.62;99908.34;4416751;32;34494;-80
2023/12/07 10:17:52;;;;;;;;;;;;;;;4.85;66.76;99909.72;4392066;32;34052;-80
2023/12/07 10:20:23;;;;;;;;;;;;;;;4.62;66.71;99903.16;4403174;32;33204;-81
2023/12/07 10:23:04;;;;;;;;;;;;;;;4.42;67.58;99905.25;4398735;32;32119;-80
2023/12/07 10:25:33;;;;;;;;;;;;;;;4.32;69.44;99907.16;4390514;32;34332;-79
2023/12/07 10:28:00;;;;;;;;;;;;;;;4.51;67.39;99912.06;4403058;32;34388;-80
2023/12/07 10:30:28;;;;;;;;;;;;;;;4.53;68.26;99913.78;4403549;32;34081;-80
2023/12/07 10:32:55;;;;;;;;;;;;;;;4.65;67.94;99917.06;4408889;32;32291;-79
2023/12/07 10:35:24;;;;;;;;;;;;;;;4.34;69.08;99918.44;4417671;32;33439;-80
2023/12/07 10:37:51;;;;;;;;;;;;;;;4.16;69.26;99920.50;4407696;32;35007;-80
2023/12/07 10:40:20;;;;;;;;;;;;;;;4.47;67.82;99915.66;4391660;32;34748;-79
2023/12/07 10:42:49;;;;;;;;;;;;;;;4.41;68.24;99915.72;4417827;32;31673;-79
2023/12/07 10:45:16;;;;;;;;;;;;;;;4.54;68.14;99912.03;4416018;32;34829;-79
2023/12/07 10:47:44;;;;;;;;;;;;;;;4.66;67.64;99919.66;4405414;32;33191;-79
2023/12/07 10:50:12;;;;;;;;;;;;;;;4.78;67.02;99922.03;4418998;32;34095;-79
2023/12/07 10:52:44;;;;;;;;;;;;;;;4.73;66.51;99921.25;4406388;32;32313;-79
2023/12/07 10:55:25;;;;;;;;;;;;;;;4.58;67.85;99914.56;4409272;32;33361;-81
2023/12/07 10:57:56;;;;;;;;;;;;;;;4.01;69.50;99924.22;4395776;32;31951;-80
2023/12/07 11:00:24;;;;;;;;;;;;;;;4.36;69.10;99923.66;4417778;32;34114;-79
2023/12/07 11:03:07;;;;;;;;;;;;;;;3.98;70.67;99932.94;4419094;32;33726;-79
2023/12/07 11:05:35;;;;;;;;;;;;;;;4.40;69.02;99921.84;4405532;32;33070;-78
2023/12/07 11:08:05;;;;;;;;;;;;;;;4.56;68.70;99928.56;4420210;32;33475;-79
2023/12/07 11:10:54;;;;;;;;;;;;;;;4.46;68.69;99933.06;4400895;32;33525;-79
2023/12/07 11:13:27;;;;;;;;;;;;;;;4.45;69.07;99928.72;4418852;32;33555;-79
2023/12/07 11:15:55;;;;;;;;;;;;;;;4.23;69.69;99929.97;4402847;32;32893;-79
2023/12/07 11:18:26;;;;;;;;;;;;;;;4.44;68.90;99934.00;4393843;32;34174;-81
2023/12/07 11:20:54;;;;;;;;;;;;;;;4.25;69.57;99929.06;4418353;32;33799;-81
2023/12/07 11:23:22;;;;;;;;;;;;;;;4.16;69.94;99938.78;4403323;32;33145;-80
2023/12/07 11:25:51;;;;;;;;;;;;;;;4.02;69.77;99933.78;4387987;32;32868;-80
2023/12/07 11:28:19;;;;;;;;;;;;;;;4.63;68.34;99930.16;4398789;32;33904;-80
2023/12/07 11:30:47;;;;;;;;;;;;;;;4.96;66.54;99933.06;4408779;32;33457;-81
2023/12/07 11:33:15;;;;;;;;;;;;;;;4.72;67.42;99924.78;4381182;32;33261;-80
2023/12/07 11:36:01;;;;;;;;;;;;;;;4.52;68.08;99932.97;4393339;32;32645;-80
2023/12/07 11:38:28;;;;;;;;;;;;;;;4.22;69.12;99929.09;4415330;32;34134;-81
2023/12/07 11:40:56;;;;;;;;;;;;;;;4.43;69.66;99927.03;4407122;32;33227;-81
2023/12/07 11:43:32;;;;;;;;;;;;;;;4.73;68.56;99921.25;4405568;32;32092;-81
2023/12/07 11:46:03;;;;;;;;;;;;;;;4.61;68.14;99924.97;4417296;32;34741;-80
2023/12/07 11:48:31;;;;;;;;;;;;;;;4.68;68.79;99930.94;4394288;32;36415;-81
2023/12/07 11:50:58;;;;;;;;;;;;;;;5.00;67.58;99924.28;4407626;32;33523;-81
2023/12/07 11:53:35;;;;;;;;;;;;;;;4.88;67.92;99923.59;4421129;32;31445;-81
2023/12/07 11:56:13;;;;;;;;;;;;;;;4.58;69.15;99926.78;4407296;32;32113;-81
2023/12/07 11:58:41;;;;;;;;;;;;;;;4.73;68.84;99921.25;4392355;32;33176;-81
2023/12/07 12:01:09;;;;;;;;;;;;;;;4.87;67.98;99924.50;4408562;32;33660;-81
2023/12/07 12:03:37;;;;;;;;;;;;;;;4.34;70.22;99933.28;4404718;32;33332;-81
2023/12/07 12:06:05;;;;;;;;;;;;;;;4.66;69.08;99924.91;4389770;32;33269;-81
2023/12/07 12:08:33;;;;;;;;;;;;;;;4.86;68.01;99927.16;4414001;32;34020;-81
2023/12/07 12:11:01;;;;;;;;;;;;;;;4.79;68.07;99928.12;4404771;32;33429;-81
2023/12/07 12:13:29;;;;;;;;;;;;;;;5.00;67.66;99937.34;4405175;32;32270;-82
2023/12/07 12:15:57;;;;;;;;;;;;;;;4.73;68.52;99934.34;4408618;32;34344;-81
2023/12/07 12:18:30;;;;;;;;;;;;;;;4.92;67.36;99931.41;4394864;32;34119;-81
2023/12/07 12:20:59;;;;;;;;;;;;;;;4.45;69.12;99938.31;4394142;32;33328;-81
2023/12/07 12:23:26;;;;;;;;;;;;;;;4.53;68.54;99941.69;4407820;32;34066;-82
2023/12/07 12:25:54;;;;;;;;;;;;;;;4.62;68.34;99939.78;4415861;32;34177;-81
2023/12/07 12:28:23;;;;;;;;;;;;;;;4.55;69.44;99945.13;4408347;32;33600;-81
2023/12/07 12:30:51;;;;;;;;;;;;;;;4.50;69.24;99945.19;4417396;32;33907;-81
2023/12/07 12:33:19;;;;;;;;;;;;;;;4.29;70.09;99943.81;4405736;32;33405;-80
2023/12/07 12:35:47;;;;;;;;;;;;;;;4.85;68.13;99951.59;4406504;32;34450;-80
2023/12/07 12:38:14;;;;;;;;;;;;;;;4.81;68.12;99945.53;4418426;32;34994;-80
2023/12/07 12:40:54;;;;;;;;;;;;;;;5.11;67.08;99953.72;4396525;32;34146;-81
2023/12/07 12:43:21;;;;;;;;;;;;;;;4.98;67.59;99952.22;4401485;32;32023;-80
2023/12/07 12:45:50;;;;;;;;;;;;;;;5.12;66.91;99963.28;4403124;32;33843;-80
2023/12/07 12:48:32;;;;;;;;;;;;;;;5.04;67.07;99958.22;4399552;32;35222;-80
2023/12/07 12:51:12;;;;;;;;;;;;;;;5.01;67.08;99965.25;4410691;32;34546;-80
2023/12/07 12:53:44;;;;;;;;;;;;;;;5.25;65.67;99962.16;4400900;32;32321;-80
2023/12/07 12:56:15;;;;;;;;;;;;;;;5.40;65.11;99969.72;4415736;32;34305;-80
2023/12/07 12:58:43;;;;;;;;;;;;;;;5.09;66.17;99968.59;4390359;32;32128;-80
2023/12/07 13:01:11;;;;;;;;;;;;;;;5.14;65.73;99964.13;4413050;32;34872;-80
2023/12/07 13:03:38;;;;;;;;;;;;;;;5.15;66.05;99963.22;4413626;32;32997;-80
2023/12/07 13:06:06;;;;;;;;;;;;;;;5.01;66.56;99966.09;4414235;32;34160;-80